createdAt,value
2022-12-05T00:00:48.326Z,22.90
2022-12-05T00:03:42.889Z,22.90
2022-12-05T00:06:39.341Z,22.80
2022-12-05T00:09:33.713Z,22.80
2022-12-05T00:12:28.152Z,22.80
2022-12-05T00:15:22.602Z,22.80
2022-12-05T00:18:17.006Z,22.70
2022-12-05T00:21:16.480Z,22.60
2022-12-05T00:24:14.001Z,22.60
2022-12-05T00:27:08.734Z,22.70
2022-12-05T00:30:03.383Z,22.80
2022-12-05T00:32:57.848Z,22.90
2022-12-05T00:35:52.325Z,23.10
2022-12-05T00:38:46.922Z,23.10
2022-12-05T00:41:41.864Z,23.10
2022-12-05T00:44:36.348Z,23.10
2022-12-05T00:47:30.727Z,23.20
2022-12-05T00:50:25.207Z,23.20
2022-12-05T00:53:19.949Z,23.30
2022-12-05T00:56:21.771Z,23.50
2022-12-05T00:59:20.850Z,23.60
2022-12-05T01:02:15.202Z,23.70
2022-12-05T01:05:10.130Z,23.60
2022-12-05T01:08:04.626Z,23.60
2022-12-05T01:11:00.200Z,23.80
2022-12-05T01:13:55.547Z,24.00
2022-12-05T01:16:52.007Z,24.20
2022-12-05T01:19:46.514Z,24.40
2022-12-05T01:22:40.915Z,24.40
2022-12-05T01:25:35.492Z,24.20
2022-12-05T01:28:30.070Z,24.10
2022-12-05T01:31:30.432Z,24.20
2022-12-05T01:34:25.389Z,24.30
2022-12-05T01:37:19.811Z,24.40
2022-12-05T01:40:14.486Z,24.40
2022-12-05T01:43:17.488Z,24.40
2022-12-05T01:46:12.048Z,24.40
2022-12-05T01:49:17.157Z,24.40
2022-12-05T01:52:19.427Z,24.50
2022-12-05T01:55:18.828Z,24.70
2022-12-05T01:58:13.529Z,24.80
2022-12-05T02:01:08.210Z,24.80
2022-12-05T02:04:03.563Z,24.90
2022-12-05T02:06:59.259Z,24.80
2022-12-05T02:09:53.861Z,24.90
2022-12-05T02:12:49.133Z,25.10
2022-12-05T02:15:57.073Z,25.20
2022-12-05T02:19:18.163Z,25.30
2022-12-05T02:22:28.873Z,25.30
2022-12-05T02:25:32.397Z,25.30
2022-12-05T02:29:05.381Z,25.30
2022-12-05T02:32:30.071Z,25.30
2022-12-05T02:35:42.888Z,25.40
2022-12-05T02:39:03.123Z,25.30
2022-12-05T02:42:14.432Z,25.40
2022-12-05T02:45:14.041Z,25.60
2022-12-05T02:48:09.159Z,25.70
2022-12-05T02:51:05.908Z,25.90
2022-12-05T02:54:04.037Z,26.10
2022-12-05T02:57:01.141Z,26.20
2022-12-05T02:59:55.828Z,26.10
2022-12-05T03:02:52.898Z,26.20
2022-12-05T03:06:04.107Z,26.40
2022-12-05T03:09:17.951Z,26.50
2022-12-05T03:12:22.445Z,26.50
2022-12-05T03:15:33.143Z,26.60
2022-12-05T03:18:35.115Z,26.60
2022-12-05T03:21:37.374Z,26.60
2022-12-05T03:24:33.209Z,26.40
2022-12-05T03:27:44.677Z,26.50
2022-12-05T03:30:41.036Z,26.60
2022-12-05T03:33:42.620Z,26.60
2022-12-05T03:36:45.733Z,26.50
2022-12-05T03:39:45.892Z,26.40
2022-12-05T03:42:45.253Z,26.40
2022-12-05T03:45:54.778Z,26.30
2022-12-05T03:48:57.961Z,26.30
2022-12-05T03:52:15.329Z,26.20
2022-12-05T03:55:14.825Z,26.30
2022-12-05T03:58:14.415Z,26.40
2022-12-05T04:01:13.181Z,26.60
2022-12-05T04:04:18.780Z,26.80
2022-12-05T04:07:15.726Z,26.90
2022-12-05T04:10:18.024Z,27.00
2022-12-05T04:13:21.687Z,27.10
2022-12-05T04:16:58.161Z,27.10
2022-12-05T04:20:19.714Z,27.40
2022-12-05T04:23:14.312Z,27.40
2022-12-05T04:26:28.415Z,27.40
2022-12-05T04:29:33.075Z,27.30
2022-12-05T04:32:53.333Z,27.50
2022-12-05T04:36:12.307Z,27.40
2022-12-05T04:39:06.955Z,27.40
2022-12-05T04:42:11.649Z,27.40
2022-12-05T04:45:09.869Z,27.40
2022-12-05T04:48:11.983Z,27.60
2022-12-05T04:51:09.502Z,27.60
2022-12-05T04:54:15.938Z,27.60
2022-12-05T04:57:24.111Z,27.60
2022-12-05T05:00:18.970Z,27.60
2022-12-05T05:03:36.357Z,27.50
2022-12-05T05:06:32.095Z,27.50
2022-12-05T05:09:27.147Z,27.40
2022-12-05T05:12:21.791Z,27.30
2022-12-05T05:15:16.405Z,27.30
2022-12-05T05:18:12.373Z,27.50
2022-12-05T05:21:07.326Z,27.50
2022-12-05T05:24:02.011Z,27.60
2022-12-05T05:26:57.615Z,27.60
2022-12-05T05:29:52.412Z,27.60
2022-12-05T05:32:47.322Z,27.50
2022-12-05T05:35:41.922Z,27.40
2022-12-05T05:38:41.122Z,27.40
2022-12-05T05:41:38.021Z,27.30
2022-12-05T05:44:32.739Z,27.40
2022-12-05T05:47:27.263Z,27.40
2022-12-05T05:50:22.181Z,27.50
2022-12-05T05:53:16.797Z,27.50
2022-12-05T05:56:20.063Z,27.50
2022-12-05T05:59:16.155Z,27.40
2022-12-05T06:02:10.958Z,27.50
2022-12-05T06:05:05.954Z,27.50
2022-12-05T06:08:00.574Z,27.40
2022-12-05T06:10:55.768Z,27.40
2022-12-05T06:13:50.556Z,27.30
2022-12-05T06:16:45.279Z,27.30
2022-12-05T06:19:39.880Z,27.40
2022-12-05T06:22:34.386Z,27.30
2022-12-05T06:25:28.824Z,27.20
2022-12-05T06:28:25.034Z,27.20
2022-12-05T06:31:22.958Z,27.20
2022-12-05T06:34:17.527Z,27.20
2022-12-05T06:37:12.450Z,27.20
2022-12-05T06:40:07.583Z,27.20
2022-12-05T06:43:02.193Z,27.20
2022-12-05T06:45:56.613Z,27.20
2022-12-05T06:48:51.834Z,27.30
2022-12-05T06:51:46.364Z,27.20
2022-12-05T06:54:40.805Z,27.10
2022-12-05T06:57:35.238Z,27.00
2022-12-05T07:00:47.862Z,26.90
2022-12-05T07:03:45.181Z,26.80
2022-12-05T07:06:40.108Z,26.80
2022-12-05T07:09:52.620Z,26.80
2022-12-05T07:12:47.359Z,26.60
2022-12-05T07:15:41.838Z,26.50
2022-12-05T07:18:36.795Z,26.40
2022-12-05T07:21:31.246Z,26.40
2022-12-05T07:24:25.689Z,26.20
2022-12-05T07:27:25.267Z,26.10
2022-12-05T07:30:21.625Z,25.80
2022-12-05T07:33:16.266Z,25.70
2022-12-05T07:36:16.924Z,25.60
2022-12-05T07:39:12.012Z,25.60
2022-12-05T07:42:06.533Z,25.60
2022-12-05T07:45:00.919Z,25.40
2022-12-05T07:47:55.534Z,25.40
2022-12-05T07:50:50.074Z,25.30
2022-12-05T07:53:45.576Z,25.20
2022-12-05T07:56:43.327Z,25.10
2022-12-05T07:59:42.068Z,24.80
2022-12-05T08:02:40.428Z,24.70
2022-12-05T08:05:36.416Z,24.60
2022-12-05T08:08:30.905Z,24.50
2022-12-05T08:11:31.721Z,24.40
2022-12-05T08:14:26.116Z,24.50
2022-12-05T08:17:20.746Z,24.50
2022-12-05T08:20:15.624Z,24.30
2022-12-05T08:23:10.272Z,24.10
2022-12-05T08:26:10.717Z,24.00
2022-12-05T08:29:14.887Z,23.90
2022-12-05T08:32:09.273Z,24.00
2022-12-05T08:35:03.820Z,23.80
2022-12-05T08:37:58.237Z,23.80
2022-12-05T08:40:52.776Z,23.70
2022-12-05T08:43:47.347Z,23.60
2022-12-05T08:46:41.940Z,23.60
2022-12-05T08:49:36.533Z,23.50
2022-12-05T08:52:30.953Z,23.40
2022-12-05T08:55:25.327Z,23.30
2022-12-05T08:58:19.884Z,23.40
2022-12-05T09:01:17.139Z,23.40
2022-12-05T09:04:11.358Z,23.30
2022-12-05T09:07:05.851Z,23.30
2022-12-05T09:10:00.284Z,23.10
2022-12-05T09:12:55.025Z,23.00
2022-12-05T09:15:49.582Z,22.80
2022-12-05T09:18:45.237Z,22.70
2022-12-05T09:21:39.995Z,22.50
2022-12-05T09:24:34.344Z,22.50
2022-12-05T09:27:30.675Z,22.30
2022-12-05T09:30:25.079Z,22.20
2022-12-05T09:33:19.585Z,21.90
2022-12-05T09:36:17.438Z,21.80
2022-12-05T09:39:13.658Z,21.70
2022-12-05T09:42:39.607Z,21.50
2022-12-05T09:45:41.975Z,21.50
2022-12-05T09:48:36.791Z,21.50
2022-12-05T09:51:31.530Z,21.50
2022-12-05T09:54:26.708Z,21.50
2022-12-05T09:57:33.518Z,21.50
2022-12-05T10:00:31.164Z,21.40
2022-12-05T10:03:51.100Z,21.50
2022-12-05T10:07:11.685Z,21.50
2022-12-05T10:10:20.341Z,21.40
2022-12-05T10:13:18.165Z,21.40
2022-12-05T10:16:39.239Z,21.40
2022-12-05T10:19:48.290Z,21.30
2022-12-05T10:23:41.232Z,21.30
2022-12-05T10:26:41.042Z,21.30
2022-12-05T10:30:01.668Z,21.30
2022-12-05T10:33:09.339Z,21.30
2022-12-05T10:36:10.969Z,21.10
2022-12-05T10:39:11.148Z,21.00
2022-12-05T10:42:07.002Z,20.90
2022-12-05T10:45:06.490Z,20.70
2022-12-05T10:48:02.184Z,20.50
2022-12-05T10:50:58.943Z,20.40
2022-12-05T10:53:54.021Z,20.40
2022-12-05T10:56:52.299Z,20.30
2022-12-05T10:59:49.506Z,20.30
2022-12-05T11:02:45.245Z,20.40
2022-12-05T11:05:39.825Z,20.40
2022-12-05T11:09:03.032Z,20.50
2022-12-05T11:12:14.951Z,20.50
2022-12-05T11:15:23.224Z,20.50
2022-12-05T11:18:36.810Z,20.50
2022-12-05T11:21:45.039Z,20.50
2022-12-05T11:24:42.622Z,20.50
2022-12-05T11:27:36.962Z,20.40
2022-12-05T11:30:32.428Z,20.40
2022-12-05T11:33:30.090Z,20.40
2022-12-05T11:36:31.523Z,20.50
2022-12-05T11:39:28.610Z,20.50
2022-12-05T11:42:46.837Z,20.50
2022-12-05T11:45:59.817Z,20.50
2022-12-05T11:49:16.091Z,20.50
2022-12-05T11:52:48.395Z,20.40
2022-12-05T11:56:01.501Z,20.40
2022-12-05T11:59:07.030Z,20.40
2022-12-05T12:02:23.100Z,20.40
2022-12-05T12:05:39.095Z,20.30
2022-12-05T12:08:52.749Z,20.30
2022-12-05T12:11:49.942Z,20.30
2022-12-05T12:14:54.186Z,20.20
2022-12-05T12:18:09.912Z,20.20
2022-12-05T12:21:10.407Z,20.20
2022-12-05T12:24:30.739Z,20.20
2022-12-05T12:27:52.300Z,20.20
2022-12-05T12:31:25.165Z,20.10
2022-12-05T12:34:28.778Z,20.10
2022-12-05T12:37:54.446Z,20.00
2022-12-05T12:41:09.212Z,20.00
2022-12-05T12:44:24.660Z,19.90
2022-12-05T12:48:09.630Z,19.90
2022-12-05T12:51:05.094Z,19.90
2022-12-05T12:54:06.379Z,19.90
2022-12-05T12:57:15.332Z,19.80
2022-12-05T13:00:27.099Z,19.80
2022-12-05T13:04:05.552Z,19.80
2022-12-05T13:07:18.580Z,19.80
2022-12-05T13:10:21.475Z,19.80
2022-12-05T13:13:31.423Z,19.80
2022-12-05T13:16:37.991Z,19.80
2022-12-05T13:19:49.567Z,19.70
2022-12-05T13:22:44.938Z,19.70
2022-12-05T13:25:41.542Z,19.70
2022-12-05T13:28:43.491Z,19.70
2022-12-05T13:31:47.409Z,19.60
2022-12-05T13:34:47.313Z,19.70
2022-12-05T13:38:07.406Z,19.60
2022-12-05T13:41:19.896Z,19.60
2022-12-05T13:44:16.787Z,19.50
2022-12-05T13:47:36.294Z,19.50
2022-12-05T13:50:44.447Z,19.50
2022-12-05T13:53:50.966Z,19.50
2022-12-05T13:56:56.309Z,19.50
2022-12-05T14:00:26.027Z,19.50
2022-12-05T14:03:40.345Z,19.50
2022-12-05T14:06:40.649Z,19.50
2022-12-05T14:09:55.950Z,19.40
2022-12-05T14:12:52.392Z,19.40
2022-12-05T14:15:49.401Z,19.40
2022-12-05T14:18:56.982Z,19.40
2022-12-05T14:22:21.915Z,19.30
2022-12-05T14:25:33.324Z,19.30
2022-12-05T14:28:45.949Z,19.20
2022-12-05T14:32:04.734Z,19.20
2022-12-05T14:35:19.082Z,19.20
2022-12-05T14:38:23.089Z,19.10
2022-12-05T14:41:37.413Z,19.00
2022-12-05T14:44:35.049Z,19.00
2022-12-05T14:47:33.906Z,19.00
2022-12-05T14:50:47.869Z,18.90
2022-12-05T14:53:44.496Z,19.00
2022-12-05T14:56:55.767Z,18.90
2022-12-05T15:00:08.341Z,18.90
2022-12-05T15:03:07.023Z,18.90
2022-12-05T15:06:03.944Z,18.90
2022-12-05T15:09:28.727Z,18.90
2022-12-05T15:12:49.369Z,18.90
2022-12-05T15:15:53.677Z,18.80
2022-12-05T15:18:58.504Z,18.80
2022-12-05T15:21:59.598Z,18.80
2022-12-05T15:24:54.021Z,18.80
2022-12-05T15:27:56.521Z,18.70
2022-12-05T15:30:57.956Z,18.70
2022-12-05T15:33:55.483Z,18.70
2022-12-05T15:37:05.597Z,18.60
2022-12-05T15:40:09.915Z,18.60
2022-12-05T15:43:18.662Z,18.50
2022-12-05T15:46:29.301Z,18.50
2022-12-05T15:49:29.242Z,18.40
2022-12-05T15:52:59.711Z,18.30
2022-12-05T15:56:05.718Z,18.40
2022-12-05T15:59:29.180Z,18.30
2022-12-05T16:02:42.573Z,18.20
2022-12-05T16:05:48.371Z,18.00
2022-12-05T16:08:47.652Z,17.80
2022-12-05T16:11:52.142Z,17.60
2022-12-05T16:14:59.577Z,17.50
2022-12-05T16:18:00.124Z,17.40
2022-12-05T16:20:54.879Z,17.30
2022-12-05T16:23:49.238Z,17.20
2022-12-05T16:26:44.218Z,17.20
2022-12-05T16:29:38.641Z,17.20
2022-12-05T16:32:37.520Z,17.10
2022-12-05T16:35:50.573Z,17.10
2022-12-05T16:38:47.309Z,17.00
2022-12-05T16:41:43.034Z,17.00
2022-12-05T16:45:06.012Z,17.00
2022-12-05T16:48:01.595Z,17.10
2022-12-05T16:51:15.787Z,17.10
2022-12-05T16:54:10.664Z,16.90
2022-12-05T16:57:05.891Z,16.90
2022-12-05T17:00:02.635Z,16.90
2022-12-05T17:03:18.447Z,17.00
2022-12-05T17:06:11.446Z,17.00
2022-12-05T17:09:06.223Z,16.90
2022-12-05T17:12:14.476Z,16.90
2022-12-05T17:15:19.820Z,16.80
2022-12-05T17:18:17.537Z,16.80
2022-12-05T17:21:38.719Z,16.70
2022-12-05T17:24:33.130Z,16.60
2022-12-05T17:27:27.603Z,16.60
2022-12-05T17:30:22.340Z,16.70
2022-12-05T17:33:19.552Z,16.70
2022-12-05T17:36:14.060Z,16.70
2022-12-05T17:39:10.095Z,16.70
2022-12-05T17:42:04.479Z,16.70
2022-12-05T17:44:59.339Z,16.70
2022-12-05T17:47:54.247Z,16.60
2022-12-05T17:50:50.927Z,16.50
2022-12-05T17:53:46.610Z,16.40
2022-12-05T17:56:41.074Z,16.30
2022-12-05T17:59:35.535Z,16.20
2022-12-05T18:02:30.302Z,16.20
2022-12-05T18:05:25.501Z,16.20
2022-12-05T18:08:20.036Z,16.20
2022-12-05T18:11:16.336Z,16.20
2022-12-05T18:14:11.690Z,16.10
2022-12-05T18:17:06.801Z,15.90
2022-12-05T18:20:01.209Z,15.90
2022-12-05T18:22:56.057Z,15.90
2022-12-05T18:26:02.291Z,15.90
2022-12-05T18:28:58.035Z,15.90
2022-12-05T18:31:52.588Z,15.80
2022-12-05T18:34:47.226Z,15.70
2022-12-05T18:37:42.229Z,15.70
2022-12-05T18:40:36.728Z,15.70
2022-12-05T18:43:31.583Z,15.70
2022-12-05T18:46:26.353Z,15.60
2022-12-05T18:49:20.959Z,15.60
2022-12-05T18:52:15.417Z,15.60
2022-12-05T18:55:17.351Z,15.60
2022-12-05T18:58:13.714Z,15.50
2022-12-05T19:01:10.541Z,15.50
2022-12-05T19:04:07.108Z,15.60
2022-12-05T19:07:03.180Z,15.60
2022-12-05T19:09:58.399Z,15.60
2022-12-05T19:12:52.837Z,15.60
2022-12-05T19:15:47.825Z,15.50
2022-12-05T19:18:42.958Z,15.40
2022-12-05T19:21:38.482Z,15.40
2022-12-05T19:24:32.957Z,15.40
2022-12-05T19:27:27.330Z,15.50
2022-12-05T19:30:21.868Z,15.40
2022-12-05T19:33:16.315Z,15.40
2022-12-05T19:36:21.768Z,15.40
2022-12-05T19:39:23.332Z,15.30
2022-12-05T19:42:18.330Z,15.30
2022-12-05T19:45:17.734Z,15.30
2022-12-05T19:48:12.458Z,15.40
2022-12-05T19:51:07.397Z,15.40
2022-12-05T19:54:03.689Z,15.40
2022-12-05T19:57:01.677Z,15.50
2022-12-05T19:59:56.271Z,15.50
2022-12-05T20:02:50.923Z,15.50
2022-12-05T20:05:45.391Z,15.50
2022-12-05T20:08:40.622Z,15.50
2022-12-05T20:11:35.339Z,15.50
2022-12-05T20:14:29.750Z,15.50
2022-12-05T20:17:24.143Z,15.50
2022-12-05T20:20:18.926Z,15.50
2022-12-05T20:23:13.519Z,15.50
2022-12-05T20:26:19.884Z,15.50
2022-12-05T20:29:14.360Z,15.40
2022-12-05T20:32:08.842Z,15.50
2022-12-05T20:35:03.462Z,15.50
2022-12-05T20:37:57.918Z,15.60
2022-12-05T20:40:52.581Z,15.60
2022-12-05T20:43:48.821Z,15.60
2022-12-05T20:46:43.334Z,15.60
2022-12-05T20:49:37.842Z,15.60
2022-12-05T20:52:33.052Z,15.70
2022-12-05T20:55:27.440Z,15.70
2022-12-05T20:58:22.993Z,15.80
2022-12-05T21:01:19.056Z,15.90
2022-12-05T21:04:14.065Z,15.90
2022-12-05T21:07:08.445Z,16.10
2022-12-05T21:10:08.024Z,16.20
2022-12-05T21:13:02.870Z,16.20
2022-12-05T21:15:57.318Z,16.30
2022-12-05T21:18:52.806Z,16.40
2022-12-05T21:21:47.261Z,16.50
2022-12-05T21:24:41.723Z,16.60
2022-12-05T21:27:36.278Z,16.70
2022-12-05T21:30:30.736Z,16.80
2022-12-05T21:33:28.790Z,16.90
2022-12-05T21:36:24.692Z,17.00
2022-12-05T21:39:19.431Z,17.10
2022-12-05T21:42:14.046Z,17.20
2022-12-05T21:45:08.984Z,17.20
2022-12-05T21:48:03.482Z,17.30
2022-12-05T21:50:58.934Z,17.40
2022-12-05T21:53:53.801Z,17.50
2022-12-05T21:56:48.204Z,17.70
2022-12-05T21:59:42.672Z,18.10
2022-12-05T22:02:37.727Z,18.50
2022-12-05T22:05:33.063Z,19.00
2022-12-05T22:08:27.609Z,19.40
2022-12-05T22:11:24.414Z,19.70
2022-12-05T22:14:18.819Z,19.80
2022-12-05T22:17:13.204Z,19.80
2022-12-05T22:20:08.482Z,19.80
2022-12-05T22:23:02.902Z,19.90
2022-12-05T22:26:09.379Z,20.00
2022-12-05T22:29:03.881Z,20.20
2022-12-05T22:31:58.387Z,20.30
2022-12-05T22:34:52.782Z,20.50
2022-12-05T22:37:47.192Z,20.60
2022-12-05T22:40:41.546Z,20.90
2022-12-05T22:43:37.845Z,21.20
2022-12-05T22:46:32.257Z,21.40
2022-12-05T22:49:26.766Z,21.40
2022-12-05T22:52:21.209Z,21.40
2022-12-05T22:55:15.656Z,21.50
2022-12-05T22:58:10.190Z,21.60
2022-12-05T23:01:16.408Z,21.60
2022-12-05T23:04:13.341Z,21.50
2022-12-05T23:07:07.868Z,21.50
2022-12-05T23:10:02.481Z,21.70
2022-12-05T23:12:57.830Z,21.80
2022-12-05T23:15:52.433Z,22.00
2022-12-05T23:18:49.685Z,22.10
2022-12-05T23:21:44.193Z,22.20
2022-12-05T23:24:38.937Z,22.30
2022-12-05T23:27:33.366Z,22.30
2022-12-05T23:30:27.835Z,22.50
2022-12-05T23:33:22.381Z,22.60
2022-12-05T23:36:17.034Z,22.90
2022-12-05T23:39:11.748Z,23.00
2022-12-05T23:42:09.606Z,23.20
2022-12-05T23:45:07.104Z,23.30
2022-12-05T23:48:04.563Z,23.40
2022-12-05T23:51:01.444Z,23.50
2022-12-05T23:53:58.362Z,23.70
2022-12-05T23:56:52.898Z,23.70
2022-12-05T23:59:48.187Z,23.90
